SBSVSBRF

Guest
Details From SBSV - Salvador Bahia Deputado Luis Eduardo M
To SBRF - Recife Intl
Flight Number -
Tags decoded
Created
Modified
Stats Distance 353 nm / 654 km
Max Altitude 0 ft / 0 m
Waypoints 3
Social Downloads 0
Likes 0
Share VATSIM

Download

Looking for another format? Having issues loading an existing format? Contact us
Advertisement - Login to hide

Notes

Requested: SBSV ARU 0853S03546W SBRF Unmatched points: ARU

Route

SBSV 0853S03546W SBRF

ID Type Via Altitude Latitude Longitude Leg Dist Tot Dist Heading (true) Name
O SBSV APT - 0 ft / 0 m -12.91099˚ -38.33104˚ - 0 nm - Salvador Bahia Deputado Luis Eduardo M
0853S03546W LATLON - 0 ft / 0 m -8.53000˚ -35.46000˚ 312 nm 312 nm 33° / 33° -
O SBRF APT - 0 ft / 0 m -8.12790˚ -34.92298˚ 40 nm 352 nm 53° / 53° Recife Intl

Altitude Profile

Advertisement - Login to hide

Weather


0- 5 10 15 20 25 30 35+ Temperature / ° C

Clouds and Precipitation
Forecast for 2018-05-22 06:00 UTC. Updated 3 hours ago

Ground ~20,000 ft ~40,000 ft Winds

SBSV

Details ICAO SBSV (SSA)
Name Salvador Bahia Deputado Luis Eduardo M
Region Brazil
Timezone America/Bahia (UTC-3.0)
Stats Elevation 64 ft / 20 m (AMSL)
Location -12.910994° -38.331043°
Runways 2
Magnetic Variation 23.445° W

METAR

SBSV 220800Z 10008KT 9999 FEW022 27/24 Q1015

Decode

TAF

TAF SBSV 220300Z 2206/2306 30003KT 9999 SCT018 TN24/2208Z TX31/2215Z BECMG 2211/2212 11009KT RMK PCN

Decode

Departure Runways

ID Width Length Bearing (true) Bearing (mag) Surface Threshold Offset Overrun Length
10 148 ft / 45 m 9,845 ft / 3,001 m 78.32° 101.77° Asphalt 0 ft / 0 m 205 ft / 62 m
17 148 ft / 45 m 5,014 ft / 1,528 m 144.04° 167.49° Asphalt 0 ft / 0 m 0 ft / 0 m
28 148 ft / 45 m 9,845 ft / 3,001 m 258.31° 281.76° Asphalt 0 ft / 0 m 205 ft / 62 m
35 148 ft / 45 m 5,014 ft / 1,528 m 324.04° 347.49° Asphalt 0 ft / 0 m 0 ft / 0 m

SBRF

Details ICAO SBRF (REC)
Name Recife Intl
Region Brazil
Timezone America/Recife (UTC-3.0)
Stats Elevation 33 ft / 10 m (AMSL)
Location -8.127896° -34.922981°
Runways 2
Magnetic Variation 22.075° W

METAR

SBRF 220800Z 15010KT 9999 SCT023 26/22 Q1014

Decode

TAF

TAF SBRF 220300Z 2206/2306 11009KT 9999 SCT020 TN24/2206Z TX30/2215Z RMK PCN

Decode

Destination Runways

ID Width Length Bearing (true) Bearing (mag) Surface Threshold Offset Overrun Length
01 98 ft / 30 m 4,979 ft / 1,518 m 304.20° 326.27° Asphalt 300 ft / 91 m 0 ft / 0 m
18 148 ft / 45 m 9,915 ft / 3,022 m 161.91° 183.98° Asphalt 1,225 ft / 373 m 0 ft / 0 m
19 98 ft / 30 m 4,979 ft / 1,518 m 124.20° 146.27° Asphalt 300 ft / 91 m 0 ft / 0 m
36 148 ft / 45 m 9,915 ft / 3,022 m 341.91° 3.98° Asphalt 0 ft / 0 m 350 ft / 107 m

Approach Navaids

Runway Type Ident Frequency Range Bearing (true) Bearing (mag) Slope Elevation
18 Localiser IRF 110.30 MHz 18 nm / 33 km 161.91° 183.98° - 33 ft / 10 m (AMSL)
18 Glidescope IRF 110.30 MHz 10 nm / 19 km 161.91° 183.98° 3.00° 33 ft / 10 m (AMSL)

Popular Alternatives